Time;durP1;ratioP1;P1;durP2;ratioP2;P2;SDS_P1;SDS_P2;PMS_P1;PMS_P2;Temp;Humidity;BMP_temperature;BMP_pressure;BME280_temperature;BME280_humidity;BME280_pressure;Samples;Min_cycle;Max_cycle;Signal;HPM_P1;HPM_P2
2023/03/21 00:02:48;;;;;;;18.75;10.57;;;23.70;48.70;;;;;;6097112;28;83347;-64
2023/03/21 00:05:50;;;;;;;15.85;10.18;;;23.70;48.70;;;;;;6099299;28;83902;-59
2023/03/21 00:08:51;;;;;;;15.80;10.13;;;23.70;48.70;;;;;;6098711;28;83566;-59
2023/03/21 00:11:51;;;;;;;15.73;10.07;;;23.80;48.60;;;;;;6098627;28;83581;-59
2023/03/21 00:14:52;;;;;;;15.93;10.05;;;23.70;48.50;;;;;;6096352;28;84668;-59
2023/03/21 00:17:57;;;;;;;14.73;9.68;;;23.70;48.50;;;;;;6096116;28;84968;-59
2023/03/21 00:20:57;;;;;;;15.00;9.30;;;23.70;48.60;;;;;;6101625;28;83096;-60
2023/03/21 00:23:58;;;;;;;14.15;9.30;;;23.70;48.50;;;;;;6101095;28;80863;-60
2023/03/21 00:26:58;;;;;;;11.70;7.35;;;23.70;48.50;;;;;;6101136;28;80765;-60
2023/03/21 00:29:59;;;;;;;15.77;8.45;;;23.70;48.50;;;;;;6102389;28;80414;-59
2023/03/21 00:33:00;;;;;;;15.50;8.77;;;23.70;48.50;;;;;;6100882;28;82361;-59
2023/03/21 00:36:00;;;;;;;11.82;7.97;;;23.70;48.70;;;;;;6083852;28;81594;-60
2023/03/21 00:39:01;;;;;;;14.48;8.25;;;23.70;48.70;;;;;;6097152;28;81581;-60
2023/03/21 00:42:01;;;;;;;11.02;7.50;;;23.70;48.80;;;;;;6094979;28;80477;-65
2023/03/21 00:45:02;;;;;;;11.43;7.80;;;23.70;48.90;;;;;;6099946;28;80258;-66
2023/03/21 00:48:02;;;;;;;12.38;7.53;;;23.70;48.70;;;;;;6102268;28;80497;-64
2023/03/21 00:51:03;;;;;;;14.20;7.53;;;23.70;48.90;;;;;;6101502;28;81033;-67
2023/03/21 00:54:04;;;;;;;10.93;7.45;;;23.70;48.60;;;;;;6100589;28;81081;-63
2023/03/21 00:57:05;;;;;;;10.77;7.05;;;23.70;49.00;;;;;;6099905;28;81527;-67
2023/03/21 01:00:06;;;;;;;11.38;7.05;;;23.70;49.10;;;;;;6101162;28;80544;-60
2023/03/21 01:03:07;;;;;;;10.90;7.40;;;23.70;48.80;;;;;;6100708;28;80571;-60
2023/03/21 01:06:12;;;;;;;10.77;6.88;;;23.70;48.80;;;;;;6099945;28;81530;-61
2023/03/21 01:09:12;;;;;;;11.27;6.93;;;23.70;48.60;;;;;;6100703;28;81068;-61
2023/03/21 01:12:13;;;;;;;11.80;7.20;;;23.70;48.70;;;;;;6100800;28;81223;-61
2023/03/21 01:15:13;;;;;;;9.82;6.75;;;23.70;48.60;;;;;;6178254;28;80640;-61
2023/03/21 01:18:14;;;;;;;10.30;6.60;;;23.70;48.70;;;;;;6157131;28;83245;-60
2023/03/21 01:21:15;;;;;;;9.88;6.13;;;23.60;48.60;;;;;;6097439;28;82077;-61
2023/03/21 01:24:15;;;;;;;10.73;6.30;;;23.60;48.50;;;;;;6100438;28;82378;-62
2023/03/21 01:27:16;;;;;;;12.77;6.63;;;23.60;48.50;;;;;;6100268;28;80313;-62
2023/03/21 01:30:17;;;;;;;9.10;5.90;;;23.60;48.50;;;;;;6100689;28;81154;-62
2023/03/21 01:33:18;;;;;;;10.85;6.45;;;23.70;48.40;;;;;;6099623;28;80235;-63
2023/03/21 01:36:18;;;;;;;9.43;6.30;;;23.70;48.30;;;;;;6100692;28;80993;-62
2023/03/21 01:39:19;;;;;;;9.68;6.30;;;23.70;48.40;;;;;;6094908;28;81953;-60
2023/03/21 01:42:22;;;;;;;9.75;6.28;;;23.70;48.50;;;;;;6101871;28;81661;-62
2023/03/21 01:45:23;;;;;;;9.20;6.07;;;23.60;48.40;;;;;;6093171;28;82545;-61
2023/03/21 01:48:24;;;;;;;7.32;5.38;;;23.60;48.50;;;;;;6095686;28;87494;-60
2023/03/21 01:51:30;;;;;;;9.15;6.00;;;23.70;48.40;;;;;;6088707;28;82644;-62
2023/03/21 01:54:31;;;;;;;9.73;6.10;;;23.70;48.20;;;;;;6089032;28;83174;-63
2023/03/21 01:57:32;;;;;;;9.70;5.72;;;23.70;48.30;;;;;;6087245;28;80306;-62
2023/03/21 02:00:35;;;;;;;6.65;4.82;;;23.70;48.50;;;;;;6095876;28;81953;-61
2023/03/21 02:03:49;;;;;;;8.75;5.55;;;23.70;48.60;;;;;;6098641;28;86322;-64
2023/03/21 02:07:23;;;;;;;9.02;6.20;;;23.70;48.30;;;;;;6080750;28;81351;-64
2023/03/21 02:10:27;;;;;;;8.27;5.50;;;23.70;48.30;;;;;;6098502;28;82621;-62
2023/03/21 02:13:30;;;;;;;9.13;5.55;;;23.70;48.20;;;;;;6096223;28;81619;-60
2023/03/21 02:16:30;;;;;;;10.20;6.22;;;23.70;48.30;;;;;;6098747;28;83843;-60
2023/03/21 02:19:31;;;;;;;9.65;6.25;;;23.70;48.50;;;;;;6099075;28;86142;-60
2023/03/21 02:22:32;;;;;;;8.85;5.80;;;23.60;48.20;;;;;;6100425;28;82783;-60
2023/03/21 02:25:35;;;;;;;8.25;5.88;;;23.70;48.50;;;;;;6101808;28;80374;-59
2023/03/21 02:28:35;;;;;;;7.95;5.53;;;23.60;48.30;;;;;;6103322;28;80715;-59
2023/03/21 02:31:36;;;;;;;8.10;5.45;;;23.70;48.50;;;;;;6099988;28;83619;-67
2023/03/21 02:34:37;;;;;;;9.15;5.93;;;23.70;48.10;;;;;;6102849;28;80547;-66
2023/03/21 02:37:38;;;;;;;8.27;5.55;;;23.70;48.10;;;;;;6102068;28;82068;-67
2023/03/21 02:40:41;;;;;;;11.30;5.28;;;23.70;48.10;;;;;;6100973;28;83711;-67
2023/03/21 02:43:42;;;;;;;9.00;4.97;;;23.70;48.10;;;;;;6098829;28;83025;-68
2023/03/21 02:46:43;;;;;;;7.78;5.13;;;23.70;48.10;;;;;;6098379;28;83200;-67
2023/03/21 02:49:44;;;;;;;8.77;5.72;;;23.70;48.40;;;;;;6101745;28;82361;-67
2023/03/21 02:52:47;;;;;;;8.35;5.22;;;23.60;47.90;;;;;;6100898;28;83408;-66
2023/03/21 02:55:48;;;;;;;8.10;5.28;;;23.60;48.00;;;;;;6101903;28;82872;-67
2023/03/21 02:58:48;;;;;;;9.57;5.55;;;23.60;47.90;;;;;;6100919;28;81682;-67
2023/03/21 03:01:49;;;;;;;9.82;5.53;;;23.70;47.80;;;;;;6100472;28;83083;-66
2023/03/21 03:04:50;;;;;;;7.47;5.68;;;23.60;47.80;;;;;;6101283;28;83136;-65
2023/03/21 03:07:50;;;;;;;9.32;5.45;;;23.60;47.80;;;;;;6102038;28;81591;-65
2023/03/21 03:10:51;;;;;;;8.38;5.47;;;23.60;47.80;;;;;;6100908;28;83678;-65
2023/03/21 03:13:52;;;;;;;8.70;5.55;;;23.70;47.80;;;;;;6101300;28;83944;-65
2023/03/21 03:16:52;;;;;;;8.27;5.18;;;23.70;47.80;;;;;;6100267;28;83603;-66
2023/03/21 03:19:53;;;;;;;8.65;5.15;;;23.60;47.70;;;;;;6099538;28;83404;-64
2023/03/21 03:22:54;;;;;;;8.23;5.32;;;23.60;48.10;;;;;;6100202;28;81772;-66
2023/03/21 03:25:55;;;;;;;10.18;5.10;;;23.60;48.40;;;;;;6086779;28;83544;-70
2023/03/21 03:28:56;;;;;;;7.63;5.00;;;23.70;48.40;;;;;;6099356;28;83328;-68
2023/03/21 03:31:56;;;;;;;8.75;5.03;;;23.70;49.10;;;;;;6099529;28;83313;-66
2023/03/21 03:34:57;;;;;;;8.20;4.68;;;23.70;48.60;;;;;;6099530;28;82775;-64
2023/03/21 03:38:03;;;;;;;7.93;5.05;;;23.70;49.10;;;;;;6100125;28;83088;-63
2023/03/21 03:41:04;;;;;;;7.20;4.82;;;23.60;48.70;;;;;;6146997;28;83469;-67
2023/03/21 03:44:12;;;;;;;10.45;5.60;;;23.60;48.50;;;;;;6138957;28;83755;-59
2023/03/21 03:47:19;;;;;;;8.40;5.32;;;23.70;48.40;;;;;;6096517;28;83497;-60
2023/03/21 03:50:21;;;;;;;9.60;5.32;;;23.70;48.40;;;;;;6098995;28;81776;-60
2023/03/21 03:53:21;;;;;;;8.60;5.00;;;23.60;48.40;;;;;;6099471;28;82099;-59
2023/03/21 03:56:24;;;;;;;7.95;5.13;;;23.60;48.40;;;;;;6099379;28;83642;-59
2023/03/21 03:59:25;;;;;;;11.50;5.63;;;23.70;48.40;;;;;;6098605;28;83610;-61
2023/03/21 04:02:49;;;;;;;6.95;5.05;;;23.60;48.50;;;;;;6090333;28;81651;-65
2023/03/21 04:05:53;;;;;;;7.57;5.18;;;23.70;48.50;;;;;;6098272;28;82561;-66
2023/03/21 04:08:55;;;;;;;8.85;5.30;;;23.60;48.20;;;;;;6099429;28;83024;-67
2023/03/21 04:11:55;;;;;;;11.02;6.05;;;23.60;48.70;;;;;;6058437;28;1208418;-65
2023/03/21 04:14:56;;;;;;;7.75;5.53;;;23.70;48.50;;;;;;6173432;28;83018;-65
2023/03/21 04:17:57;;;;;;;9.93;6.25;;;23.60;48.60;;;;;;6124700;28;83410;-66
2023/03/21 04:20:57;;;;;;;8.73;5.82;;;23.70;48.70;;;;;;6101734;28;80832;-58
2023/03/21 04:24:01;;;;;;;9.32;6.22;;;23.70;48.80;;;;;;6100564;28;82138;-59
2023/03/21 04:27:02;;;;;;;9.35;6.30;;;23.60;48.10;;;;;;6100630;28;83456;-59
2023/03/21 04:30:14;;;;;;;9.25;6.30;;;23.60;48.10;;;;;;6099796;28;81669;-59
2023/03/21 04:33:25;;;;;;;9.43;5.93;;;23.70;48.10;;;;;;6100670;28;83105;-59
2023/03/21 04:36:29;;;;;;;9.32;6.32;;;23.60;48.20;;;;;;6097611;28;83110;-59
2023/03/21 04:39:32;;;;;;;8.60;6.57;;;23.70;48.20;;;;;;6099248;28;80473;-62
2023/03/21 04:42:33;;;;;;;9.23;6.75;;;23.70;48.20;;;;;;6097006;28;82644;-61
2023/03/21 04:45:34;;;;;;;10.55;6.95;;;23.70;48.10;;;;;;6095488;28;82971;-62
2023/03/21 04:48:35;;;;;;;8.60;5.88;;;23.80;48.10;;;;;;6097449;28;82035;-61
2023/03/21 04:51:36;;;;;;;9.48;6.35;;;23.80;48.40;;;;;;6099291;28;83273;-61
2023/03/21 04:54:38;;;;;;;9.43;6.38;;;23.80;48.20;;;;;;6099081;28;82562;-60
2023/03/21 04:57:38;;;;;;;7.70;5.57;;;23.80;48.00;;;;;;6101653;28;80897;-59
2023/03/21 05:00:39;;;;;;;8.07;5.93;;;23.80;47.90;;;;;;6100465;28;84936;-60
2023/03/21 05:03:40;;;;;;;11.30;6.35;;;23.80;47.90;;;;;;6100163;28;81979;-59
2023/03/21 05:06:44;;;;;;;10.48;6.63;;;23.80;47.70;;;;;;6100614;28;80700;-59
2023/03/21 05:09:44;;;;;;;8.80;6.30;;;23.80;47.60;;;;;;6101645;28;80639;-61
2023/03/21 05:12:45;;;;;;;8.73;6.13;;;23.90;47.60;;;;;;6098791;28;82410;-59
2023/03/21 05:15:45;;;;;;;8.48;6.03;;;23.90;47.70;;;;;;6099358;28;81678;-61
2023/03/21 05:18:49;;;;;;;10.05;6.05;;;23.90;47.90;;;;;;6100791;28;81546;-67
2023/03/21 05:21:52;;;;;;;9.75;5.93;;;23.90;48.40;;;;;;6099531;28;83499;-59
2023/03/21 05:24:56;;;;;;;13.27;5.97;;;23.90;48.50;;;;;;6099489;28;82600;-59
2023/03/21 05:28:11;;;;;;;9.37;5.87;;;23.90;48.30;;;;;;6096151;28;83163;-63
2023/03/21 05:31:15;;;;;;;10.93;6.28;;;23.90;48.20;;;;;;6093670;27;83134;-62
2023/03/21 05:34:16;;;;;;;8.35;5.88;;;24.00;48.50;;;;;;6094444;27;83032;-70
2023/03/21 05:37:17;;;;;;;9.73;6.03;;;24.00;48.50;;;;;;6096932;28;89153;-69
2023/03/21 05:40:21;;;;;;;8.95;6.40;;;23.90;48.50;;;;;;6092288;28;83211;-67
2023/03/21 05:43:22;;;;;;;13.77;6.07;;;23.90;48.60;;;;;;6093322;28;83047;-68
2023/03/21 05:46:23;;;;;;;10.93;5.88;;;23.90;48.40;;;;;;6092514;28;80545;-68
2023/03/21 05:49:25;;;;;;;12.15;5.85;;;23.90;48.40;;;;;;6082747;28;83740;-66
2023/03/21 05:52:30;;;;;;;8.73;5.25;;;23.90;48.60;;;;;;6088279;28;82661;-67
2023/03/21 05:55:31;;;;;;;8.85;5.88;;;23.90;48.40;;;;;;6090746;28;83120;-66
2023/03/21 05:58:32;;;;;;;9.85;5.32;;;23.90;48.20;;;;;;6090273;28;83276;-66
2023/03/21 06:01:33;;;;;;;12.35;6.35;;;23.90;48.10;;;;;;6091484;28;81994;-65
2023/03/21 06:04:42;;;;;;;10.68;5.38;;;23.90;48.00;;;;;;6091644;28;82576;-66
2023/03/21 06:07:42;;;;;;;8.20;5.57;;;23.80;47.80;;;;;;6092858;28;83433;-66
2023/03/21 06:10:44;;;;;;;6.93;5.10;;;23.80;47.70;;;;;;6093006;28;83284;-66
2023/03/21 06:13:46;;;;;;;9.05;6.20;;;23.80;47.60;;;;;;6094934;28;86052;-65
2023/03/21 06:16:46;;;;;;;9.23;5.45;;;23.80;47.50;;;;;;6096859;28;80717;-66
2023/03/21 06:19:47;;;;;;;11.50;6.47;;;23.80;47.50;;;;;;6094559;28;83448;-66
2023/03/21 06:23:06;;;;;;;10.07;6.50;;;23.70;47.30;;;;;;6096474;28;80454;-67
2023/03/21 06:26:07;;;;;;;8.38;6.10;;;23.70;47.40;;;;;;6094179;28;82567;-67
2023/03/21 06:29:10;;;;;;;8.70;5.30;;;23.70;47.40;;;;;;6097386;28;84032;-66
2023/03/21 06:32:11;;;;;;;10.88;6.43;;;23.70;47.30;;;;;;6096414;28;83219;-67
2023/03/21 06:35:11;;;;;;;9.07;5.18;;;23.70;47.20;;;;;;6098623;28;82189;-67
2023/03/21 06:38:12;;;;;;;9.30;5.70;;;23.60;47.20;;;;;;6099255;27;81396;-66
2023/03/21 06:41:13;;;;;;;6.20;4.65;;;23.60;47.00;;;;;;6101563;28;83414;-66
2023/03/21 06:44:18;;;;;;;6.88;4.90;;;23.60;46.90;;;;;;6078891;28;81129;-66
2023/03/21 06:47:27;;;;;;;9.02;5.28;;;23.60;46.90;;;;;;6097137;28;81604;-65
2023/03/21 06:50:28;;;;;;;8.43;4.70;;;23.60;46.90;;;;;;6085653;28;82830;-66
2023/03/21 06:53:28;;;;;;;6.93;4.72;;;23.60;46.80;;;;;;6079667;28;82241;-66
2023/03/21 06:56:48;;;;;;;5.82;4.20;;;23.60;46.70;;;;;;6144185;28;83198;-67
2023/03/21 06:59:55;;;;;;;7.28;4.47;;;23.60;46.60;;;;;;6158411;28;83369;-66
2023/03/21 07:02:57;;;;;;;7.15;4.25;;;23.60;46.50;;;;;;6099341;28;80420;-65
2023/03/21 07:06:00;;;;;;;6.60;4.10;;;23.60;46.50;;;;;;6100074;28;83369;-72
2023/03/21 07:09:01;;;;;;;7.78;4.05;;;23.60;46.40;;;;;;6102470;28;82626;-73
2023/03/21 07:12:05;;;;;;;5.50;4.00;;;23.60;46.40;;;;;;6088853;28;81558;-72
2023/03/21 07:15:36;;;;;;;;;;;23.50;46.20;;;;;;6193127;28;81603;-72
2023/03/21 07:18:37;;;;;;;7.03;3.85;;;23.60;46.30;;;;;;6209541;28;83565;-72
2023/03/21 07:21:37;;;;;;;5.47;3.97;;;23.60;46.10;;;;;;6203650;28;81043;-72
2023/03/21 07:24:38;;;;;;;6.15;3.90;;;23.60;46.10;;;;;;6202811;28;82807;-72
2023/03/21 07:27:38;;;;;;;5.03;3.60;;;23.60;46.10;;;;;;6202647;28;83893;-72
2023/03/21 07:30:39;;;;;;;4.13;3.03;;;23.50;46.00;;;;;;6103088;28;84711;-68
2023/03/21 07:33:40;;;;;;;6.82;3.78;;;23.50;46.00;;;;;;6104312;28;80117;-72
2023/03/21 07:36:40;;;;;;;3.97;3.15;;;23.50;46.00;;;;;;6085951;28;85532;-69
2023/03/21 07:39:42;;;;;;;3.83;2.88;;;23.50;45.90;;;;;;6083340;28;84278;-71
2023/03/21 07:42:42;;;;;;;4.47;3.33;;;23.50;45.90;;;;;;6096977;28;82518;-62
2023/03/21 07:45:45;;;;;;;4.43;3.22;;;23.60;45.80;;;;;;6090488;28;83746;-65
2023/03/21 07:48:47;;;;;;;4.60;3.25;;;23.60;45.80;;;;;;6088881;28;83309;-65
2023/03/21 07:51:48;;;;;;;4.28;3.05;;;23.60;45.90;;;;;;6098760;28;81273;-64
2023/03/21 07:54:49;;;;;;;9.13;3.50;;;23.60;45.90;;;;;;6087156;28;81625;-63
2023/03/21 07:57:50;;;;;;;3.85;2.67;;;23.60;45.80;;;;;;6079445;28;81627;-64
2023/03/21 08:00:51;;;;;;;3.33;2.75;;;23.60;46.00;;;;;;6094241;28;81342;-63
2023/03/21 08:03:52;;;;;;;3.50;2.80;;;23.60;46.20;;;;;;6082507;28;81382;-59
2023/03/21 08:06:52;;;;;;;4.97;3.03;;;23.70;46.40;;;;;;6105208;28;81381;-59
2023/03/21 08:09:53;;;;;;;5.35;3.28;;;23.70;46.50;;;;;;6191882;28;80398;-58
2023/03/21 08:12:54;;;;;;;3.58;2.72;;;23.70;46.60;;;;;;6155056;28;82475;-64
2023/03/21 08:15:54;;;;;;;4.22;3.15;;;23.70;46.80;;;;;;6064223;28;81625;-61
2023/03/21 08:18:55;;;;;;;5.38;3.55;;;23.80;46.70;;;;;;6075025;28;84156;-61
2023/03/21 08:21:58;;;;;;;4.60;3.28;;;23.80;46.50;;;;;;6094904;28;82510;-58
2023/03/21 08:24:59;;;;;;;4.18;3.05;;;23.80;46.50;;;;;;6093484;28;83704;-60
2023/03/21 08:27:59;;;;;;;4.47;3.22;;;23.90;46.40;;;;;;6090539;27;83262;-60
2023/03/21 08:31:00;;;;;;;5.03;3.35;;;23.90;46.40;;;;;;6089459;28;83225;-60
2023/03/21 08:34:00;;;;;;;4.82;2.88;;;23.90;46.40;;;;;;6101544;28;80981;-59
2023/03/21 08:37:01;;;;;;;5.45;3.00;;;23.90;46.30;;;;;;6100279;28;80619;-59
2023/03/21 08:40:02;;;;;;;3.95;2.80;;;23.90;46.20;;;;;;6099766;28;80340;-62
2023/03/21 08:43:03;;;;;;;4.95;3.13;;;23.90;46.10;;;;;;6101423;28;80452;-60
2023/03/21 08:46:03;;;;;;;3.92;2.60;;;23.80;46.10;;;;;;6093955;28;80518;-61
2023/03/21 08:49:04;;;;;;;5.15;3.33;;;23.80;46.00;;;;;;6100641;28;84067;-61
2023/03/21 08:52:05;;;;;;;4.72;3.28;;;23.80;46.00;;;;;;6101135;28;80459;-61
2023/03/21 08:55:05;;;;;;;5.25;3.08;;;23.80;46.00;;;;;;6101019;28;80539;-62
2023/03/21 08:58:06;;;;;;;7.25;2.80;;;23.80;45.90;;;;;;6100653;28;80497;-62
2023/03/21 09:01:14;;;;;;;3.22;2.60;;;23.70;45.80;;;;;;6101095;28;80649;-61
2023/03/21 09:04:17;;;;;;;3.95;2.95;;;23.70;45.70;;;;;;6101380;28;81038;-61
2023/03/21 09:07:18;;;;;;;5.93;3.33;;;23.70;45.70;;;;;;6101096;28;79987;-61
2023/03/21 09:10:19;;;;;;;3.80;3.00;;;23.70;45.80;;;;;;6100357;28;80991;-63
2023/03/21 09:13:20;;;;;;;7.80;2.95;;;23.70;45.80;;;;;;6099257;28;80213;-61
2023/03/21 09:16:20;;;;;;;5.18;3.28;;;23.70;45.80;;;;;;6125030;28;80420;-58
2023/03/21 09:19:21;;;;;;;4.38;2.92;;;23.70;45.80;;;;;;6176180;28;81455;-59
2023/03/21 09:22:22;;;;;;;3.78;2.80;;;23.70;45.80;;;;;;6100721;28;80504;-58
2023/03/21 09:25:23;;;;;;;3.35;2.72;;;23.70;45.90;;;;;;6100613;28;80691;-59
2023/03/21 09:28:24;;;;;;;5.35;3.10;;;23.70;45.90;;;;;;6125136;28;80998;-58
2023/03/21 09:31:24;;;;;;;4.20;2.92;;;23.80;46.00;;;;;;6177057;28;83332;-59
2023/03/21 09:34:25;;;;;;;3.25;2.88;;;23.80;46.00;;;;;;6100850;28;80423;-62
2023/03/21 09:37:26;;;;;;;4.35;3.08;;;23.80;46.00;;;;;;6100585;28;81257;-62
2023/03/21 09:40:27;;;;;;;3.90;2.67;;;23.80;45.80;;;;;;6096507;28;82138;-62
2023/03/21 09:43:29;;;;;;;3.92;2.90;;;23.80;45.80;;;;;;6099993;28;81558;-62
2023/03/21 09:46:30;;;;;;;5.60;3.10;;;23.70;45.60;;;;;;6094573;28;80722;-62
2023/03/21 09:49:31;;;;;;;4.25;2.95;;;23.70;45.70;;;;;;6098764;28;81735;-62
2023/03/21 09:52:33;;;;;;;5.15;3.00;;;23.80;45.70;;;;;;6099842;28;80577;-61
2023/03/21 09:55:34;;;;;;;5.50;3.65;;;23.70;45.70;;;;;;6100214;28;80822;-61
2023/03/21 09:58:35;;;;;;;4.57;3.47;;;23.70;45.60;;;;;;6092356;28;82347;-62
2023/03/21 10:01:40;;;;;;;5.20;3.60;;;23.80;45.80;;;;;;6095049;28;81489;-62
2023/03/21 10:04:42;;;;;;;4.07;3.17;;;23.70;45.70;;;;;;6099778;28;81003;-62
2023/03/21 10:07:43;;;;;;;5.45;3.28;;;23.70;45.70;;;;;;6099856;28;81212;-62
2023/03/21 10:10:44;;;;;;;4.68;3.05;;;23.70;45.50;;;;;;6100003;28;80861;-74
2023/03/21 10:13:44;;;;;;;3.90;3.00;;;23.70;45.50;;;;;;6087612;28;80485;-73
2023/03/21 10:16:45;;;;;;;4.97;3.22;;;23.80;45.60;;;;;;6098167;28;81457;-73
2023/03/21 10:19:45;;;;;;;7.20;3.47;;;23.80;45.60;;;;;;6100440;28;80517;-71
2023/03/21 10:22:46;;;;;;;4.50;3.47;;;23.70;45.50;;;;;;6093055;28;81491;-70
2023/03/21 10:25:47;;;;;;;3.70;3.10;;;23.70;45.60;;;;;;6118014;28;83129;-68
2023/03/21 10:28:47;;;;;;;4.50;3.30;;;23.70;45.60;;;;;;6090438;28;81048;-59
2023/03/21 10:31:48;;;;;;;5.18;3.53;;;23.70;45.40;;;;;;6082369;28;80862;-57
2023/03/21 10:34:48;;;;;;;5.07;3.42;;;23.70;45.70;;;;;;6093392;28;80473;-56
2023/03/21 10:37:49;;;;;;;5.88;4.00;;;23.70;45.70;;;;;;6093632;28;81807;-61
2023/03/21 10:40:50;;;;;;;6.30;4.35;;;23.70;45.60;;;;;;6093040;28;81156;-56
2023/03/21 12:00:53;;;;;;;13.27;9.07;;;23.10;44.50;;;;;;6067860;26;82561;-65
2023/03/21 12:03:54;;;;;;;15.75;9.82;;;23.00;44.50;;;;;;6091424;28;85943;-69
2023/03/21 12:06:54;;;;;;;12.85;9.32;;;22.80;44.50;;;;;;6120720;28;81918;-68
2023/03/21 12:09:55;;;;;;;12.70;8.60;;;22.60;45.20;;;;;;6122487;28;81671;-66
2023/03/21 12:12:55;;;;;;;13.23;8.10;;;22.60;45.30;;;;;;6103056;28;81382;-70
2023/03/21 12:15:56;;;;;;;12.05;8.48;;;22.70;45.20;;;;;;6127766;28;81812;-65
2023/03/21 12:18:57;;;;;;;13.52;8.07;;;22.70;45.00;;;;;;6101193;28;80785;-64
2023/03/21 12:21:57;;;;;;;12.30;8.77;;;22.60;45.50;;;;;;6093849;28;82258;-62
2023/03/21 12:24:58;;;;;;;12.98;9.38;;;22.70;45.30;;;;;;6104256;28;86875;-63
2023/03/21 12:27:58;;;;;;;10.40;7.43;;;22.70;45.30;;;;;;6075229;28;85249;-67
2023/03/21 12:30:59;;;;;;;13.85;8.48;;;22.80;45.60;;;;;;6081511;28;81669;-62
2023/03/21 12:33:59;;;;;;;17.08;8.60;;;22.80;45.80;;;;;;6117125;28;84046;-65
2023/03/21 12:37:00;;;;;;;17.85;9.35;;;22.80;45.50;;;;;;6085574;28;80466;-62
2023/03/21 12:40:01;;;;;;;16.05;10.98;;;22.90;45.40;;;;;;6073811;28;87863;-63
2023/03/21 12:43:02;;;;;;;15.07;8.63;;;22.90;45.40;;;;;;6082766;28;83322;-62
2023/03/21 12:46:02;;;;;;;19.42;9.73;;;23.00;45.30;;;;;;6104831;28;82903;-64
2023/03/21 12:49:03;;;;;;;13.65;8.98;;;23.00;45.20;;;;;;6113910;28;86188;-63
2023/03/21 12:52:03;;;;;;;17.13;10.15;;;23.00;45.10;;;;;;6082610;28;82118;-62
2023/03/21 12:55:04;;;;;;;15.05;10.35;;;23.00;44.80;;;;;;6077903;28;87997;-62
2023/03/21 12:58:05;;;;;;;15.10;10.90;;;23.00;45.00;;;;;;6080709;28;85006;-73
2023/03/21 13:01:07;;;;;;;18.83;13.20;;;23.00;45.40;;;;;;6072362;28;85186;-63
2023/03/21 13:04:08;;;;;;;17.98;13.35;;;23.00;45.00;;;;;;6081462;28;87555;-62
2023/03/21 13:07:08;;;;;;;17.08;11.68;;;23.00;44.40;;;;;;6057239;28;84887;-63
2023/03/21 13:10:09;;;;;;;16.20;11.43;;;23.00;44.90;;;;;;6081335;28;83739;-62
2023/03/21 13:13:09;;;;;;;14.77;10.15;;;23.10;44.90;;;;;;6067344;28;90468;-66
2023/03/21 13:16:10;;;;;;;18.90;10.80;;;23.00;44.70;;;;;;6078759;28;84212;-64
2023/03/21 13:19:10;;;;;;;15.38;10.85;;;23.00;44.60;;;;;;6072496;28;87175;-64
2023/03/21 13:22:11;;;;;;;14.20;10.63;;;23.00;44.50;;;;;;6085581;28;88397;-65
2023/03/21 13:25:11;;;;;;;14.50;9.90;;;23.00;44.50;;;;;;6074672;28;84364;-64
2023/03/21 13:28:12;;;;;;;14.15;10.05;;;23.10;44.60;;;;;;6083410;28;87919;-66
2023/03/21 13:31:13;;;;;;;12.25;8.23;;;23.10;44.90;;;;;;6077046;28;83644;-64
2023/03/21 13:34:13;;;;;;;14.32;10.15;;;23.10;44.80;;;;;;6062628;28;83761;-64
2023/03/21 13:37:14;;;;;;;14.10;10.18;;;23.10;44.90;;;;;;6074884;28;83496;-63
2023/03/21 13:40:15;;;;;;;16.58;9.80;;;23.10;45.10;;;;;;6081771;28;90207;-62
2023/03/21 13:43:15;;;;;;;16.48;11.80;;;23.10;45.00;;;;;;6067133;28;82887;-63
2023/03/21 13:46:16;;;;;;;18.77;12.50;;;23.00;45.10;;;;;;6078402;28;83155;-64
2023/03/21 13:49:17;;;;;;;23.48;14.02;;;23.00;45.90;;;;;;6077332;28;84080;-61
2023/03/21 13:52:17;;;;;;;20.45;14.52;;;22.90;46.50;;;;;;6095869;28;83683;-62
2023/03/21 13:55:18;;;;;;;21.50;14.60;;;22.90;46.60;;;;;;6074267;28;84703;-64
2023/03/21 13:58:18;;;;;;;19.33;13.60;;;22.80;46.60;;;;;;6054062;28;86471;-66
2023/03/21 14:01:20;;;;;;;18.92;14.90;;;22.80;46.70;;;;;;6056554;28;88734;-62
2023/03/21 14:04:21;;;;;;;20.42;14.27;;;22.70;46.60;;;;;;6082721;28;83710;-66
2023/03/21 14:07:21;;;;;;;23.35;14.18;;;22.70;46.70;;;;;;6079509;28;83315;-62
2023/03/21 14:10:22;;;;;;;19.83;14.60;;;22.60;46.70;;;;;;6076919;28;85415;-62
2023/03/21 14:13:22;;;;;;;25.58;15.88;;;22.60;46.90;;;;;;6077931;28;90009;-62
2023/03/21 14:16:24;;;;;;;30.40;16.30;;;22.50;47.00;;;;;;6101605;28;85523;-61
2023/03/21 14:19:25;;;;;;;26.40;14.45;;;22.50;47.10;;;;;;6117641;28;84473;-63
2023/03/21 14:22:25;;;;;;;42.03;25.48;;;22.50;47.60;;;;;;6119270;28;84231;-61
2023/03/21 14:25:26;;;;;;;40.30;23.58;;;22.60;48.40;;;;;;6120651;28;83094;-64
2023/03/21 14:28:31;;;;;;;34.47;21.50;;;22.80;48.40;;;;;;6119612;28;83595;-66
2023/03/21 14:31:32;;;;;;;33.58;20.15;;;22.90;48.70;;;;;;6123601;28;85129;-60
2023/03/21 14:34:33;;;;;;;29.77;19.77;;;22.90;48.60;;;;;;6122408;28;84228;-60
2023/03/21 14:37:33;;;;;;;26.67;17.38;;;23.00;48.50;;;;;;6123078;28;83459;-61
2023/03/21 14:40:34;;;;;;;28.35;17.98;;;23.10;48.50;;;;;;6124840;28;84192;-62
2023/03/21 14:43:35;;;;;;;28.88;16.38;;;23.10;48.30;;;;;;6111108;28;83816;-65
2023/03/21 14:46:35;;;;;;;24.13;15.20;;;23.10;48.80;;;;;;6116769;28;83341;-61
2023/03/21 14:49:36;;;;;;;23.13;14.65;;;23.20;48.80;;;;;;6119850;28;83027;-62
2023/03/21 14:52:39;;;;;;;20.92;13.43;;;23.20;49.10;;;;;;6124643;28;83971;-62
2023/03/21 14:55:39;;;;;;;24.25;12.57;;;23.20;49.00;;;;;;6089826;28;85136;-63
2023/03/21 14:58:40;;;;;;;19.17;11.70;;;23.30;49.70;;;;;;6101245;28;83292;-62
2023/03/21 15:01:41;;;;;;;17.48;11.30;;;23.30;49.10;;;;;;6124229;28;84975;-61
2023/03/21 15:04:41;;;;;;;15.52;11.02;;;23.30;48.90;;;;;;6124361;28;82992;-63
2023/03/21 15:07:42;;;;;;;16.75;10.27;;;23.40;48.70;;;;;;6109167;28;84501;-64
2023/03/21 15:10:42;;;;;;;13.02;8.98;;;23.40;48.30;;;;;;6112457;28;84239;-63
2023/03/21 15:13:44;;;;;;;14.55;9.15;;;23.40;48.20;;;;;;6130520;28;83603;-63
2023/03/21 15:16:44;;;;;;;11.75;8.00;;;23.50;48.30;;;;;;6130408;28;82630;-61
2023/03/21 15:19:45;;;;;;;16.45;8.48;;;23.50;48.30;;;;;;6129253;28;80611;-64
2023/03/21 15:22:45;;;;;;;11.77;8.32;;;23.50;48.10;;;;;;6131033;28;81369;-64
2023/03/21 15:25:46;;;;;;;13.95;8.20;;;23.50;48.00;;;;;;6128468;28;82889;-61
2023/03/21 15:28:47;;;;;;;9.18;7.10;;;23.50;48.00;;;;;;6128842;28;81150;-63
2023/03/21 15:31:47;;;;;;;17.13;7.25;;;23.60;48.40;;;;;;6112465;28;80698;-61
2023/03/21 15:34:48;;;;;;;14.80;7.47;;;23.50;48.40;;;;;;6128266;28;80671;-61
2023/03/21 15:37:49;;;;;;;9.18;6.22;;;23.50;49.20;;;;;;6117176;28;81668;-62
2023/03/21 15:40:50;;;;;;;16.60;7.38;;;23.50;48.20;;;;;;6131089;28;80496;-60
2023/03/21 15:43:50;;;;;;;9.18;6.50;;;23.60;48.70;;;;;;6130463;28;80340;-65
2023/03/21 15:46:51;;;;;;;9.85;6.53;;;23.50;48.80;;;;;;6113111;28;81185;-70
2023/03/21 15:49:51;;;;;;;12.40;6.75;;;23.60;48.90;;;;;;6131716;28;80507;-70
2023/03/21 15:52:52;;;;;;;14.20;6.90;;;23.60;48.80;;;;;;6115263;28;81998;-70
2023/03/21 15:55:52;;;;;;;14.50;7.05;;;23.50;48.70;;;;;;6130092;28;83139;-63
2023/03/21 15:58:53;;;;;;;19.35;7.53;;;23.60;48.80;;;;;;6128730;28;80845;-63
2023/03/21 16:01:53;;;;;;;43.13;34.72;;;23.50;49.60;;;;;;6109923;28;81566;-66
2023/03/21 16:04:54;;;;;;;135.98;121.18;;;23.60;50.40;;;;;;6109214;28;83651;-63
2023/03/21 16:07:55;;;;;;;100.72;88.85;;;23.80;50.70;;;;;;6122328;28;85971;-62
2023/03/21 16:10:55;;;;;;;75.90;66.53;;;24.00;50.20;;;;;;6097051;28;86362;-66
2023/03/21 16:13:56;;;;;;;61.28;50.55;;;24.00;49.50;;;;;;6123020;28;83696;-66
2023/03/21 16:17:00;;;;;;;49.67;35.83;;;23.90;49.20;;;;;;6123457;28;83079;-63
2023/03/21 16:20:00;;;;;;;37.17;31.58;;;23.80;49.00;;;;;;6124963;28;83432;-66
2023/03/21 16:23:01;;;;;;;34.85;29.30;;;23.80;48.90;;;;;;6126227;28;83861;-62
2023/03/21 16:26:03;;;;;;;35.67;24.30;;;23.70;49.10;;;;;;6113286;28;85837;-67
2023/03/21 16:29:04;;;;;;;27.45;20.52;;;23.70;49.00;;;;;;6121594;28;87468;-67
2023/03/21 16:32:05;;;;;;;25.35;19.33;;;23.60;48.70;;;;;;6125066;28;83595;-70
2023/03/21 16:35:06;;;;;;;23.15;15.68;;;23.60;48.60;;;;;;6125850;28;84251;-65
2023/03/21 16:38:07;;;;;;;21.50;14.98;;;23.70;48.70;;;;;;6125487;28;83264;-63
2023/03/21 16:41:07;;;;;;;20.05;13.77;;;23.70;49.10;;;;;;6123414;28;83314;-64
2023/03/21 16:44:08;;;;;;;20.33;12.05;;;23.70;49.10;;;;;;6102733;28;84912;-65
2023/03/21 16:47:09;;;;;;;19.13;12.15;;;23.60;49.00;;;;;;6099703;28;83199;-66
2023/03/21 16:50:13;;;;;;;16.33;11.35;;;23.70;49.00;;;;;;6104781;28;85957;-69
2023/03/21 16:53:13;;;;;;;16.55;10.85;;;23.60;48.80;;;;;;6123345;28;83490;-62
2023/03/21 16:56:14;;;;;;;16.10;10.88;;;23.60;48.90;;;;;;6122515;28;83826;-61